createdAt,value
2018-07-19T00:01:20.428Z,96999.69
2018-07-19T00:03:47.555Z,97003.94
2018-07-19T00:06:14.694Z,96999.87
2018-07-19T00:08:41.869Z,96999.05
2018-07-19T00:11:08.980Z,96997.41
2018-07-19T00:13:36.114Z,96993.66
2018-07-19T00:16:03.279Z,96995.13
2018-07-19T00:18:30.376Z,96996.02
2018-07-19T00:20:57.864Z,96993.66
2018-07-19T00:23:25.712Z,96994.39
2018-07-19T00:25:53.080Z,96993.69
2018-07-19T00:28:20.247Z,96992.50
2018-07-19T00:30:47.448Z,96995.61
2018-07-19T00:33:14.580Z,96997.53
2018-07-19T00:35:41.756Z,96996.42
2018-07-19T00:38:08.921Z,97000.13
2018-07-19T00:40:36.036Z,97004.63
2018-07-19T00:43:03.252Z,97005.78
2018-07-19T00:45:30.392Z,97006.30
2018-07-19T00:47:57.573Z,97008.75
2018-07-19T00:50:24.710Z,97004.28
2018-07-19T00:52:51.823Z,97011.56
2018-07-19T00:55:18.984Z,97012.25
2018-07-19T00:57:46.168Z,97009.15
2018-07-19T01:00:13.280Z,97009.27
2018-07-19T01:02:40.439Z,97014.03
2018-07-19T01:05:07.549Z,97011.29
2018-07-19T01:07:34.696Z,97008.80
2018-07-19T01:10:01.893Z,97012.24
2018-07-19T01:12:29.015Z,97012.39
2018-07-19T01:14:56.136Z,97013.43
2018-07-19T01:17:23.328Z,97012.49
2018-07-19T01:19:50.461Z,97010.58
2018-07-19T01:22:17.636Z,97006.51
2018-07-19T01:24:44.805Z,97010.97
2018-07-19T01:27:11.975Z,97010.52
2018-07-19T01:29:39.101Z,97006.29
2018-07-19T01:32:06.232Z,97006.86
2018-07-19T01:34:33.416Z,97006.52
2018-07-19T01:37:00.596Z,97010.55
2018-07-19T01:39:27.748Z,97005.59
2018-07-19T01:42:58.192Z,97005.03
2018-07-19T01:45:25.311Z,97005.59
2018-07-19T01:47:52.472Z,97008.06
2018-07-19T01:50:19.590Z,97007.36
2018-07-19T01:52:46.744Z,97001.09
2018-07-19T01:55:13.948Z,97006.83
2018-07-19T01:57:41.114Z,97008.73
2018-07-19T02:00:08.333Z,97007.05
2018-07-19T02:02:35.469Z,97012.15
2018-07-19T02:05:03.060Z,97019.29
2018-07-19T02:07:30.191Z,97013.94
2018-07-19T02:09:57.335Z,97005.19
2018-07-19T02:12:24.480Z,97016.14
2018-07-19T02:14:51.631Z,97021.87
2018-07-19T02:17:18.794Z,97021.21
2018-07-19T02:19:45.944Z,97019.11
2018-07-19T02:22:13.088Z,97017.12
2018-07-19T02:24:40.208Z,97025.57
2018-07-19T02:27:07.364Z,97020.91
2018-07-19T02:29:34.517Z,97023.56
2018-07-19T02:32:01.650Z,97025.75
2018-07-19T02:34:28.804Z,97025.75
2018-07-19T02:36:55.948Z,97024.22
2018-07-19T02:39:23.084Z,97030.66
2018-07-19T02:41:50.227Z,97023.66
2018-07-19T02:44:17.439Z,97037.42
2018-07-19T02:46:44.807Z,97032.69
2018-07-19T02:49:12.277Z,97037.87
2018-07-19T02:51:40.455Z,97031.62
2018-07-19T02:54:07.717Z,97027.41
2018-07-19T02:56:34.896Z,97031.56
2018-07-19T02:59:02.181Z,97028.45
2018-07-19T03:01:29.359Z,97025.28
2018-07-19T03:03:56.523Z,97027.53
2018-07-19T03:06:23.664Z,97039.70
2018-07-19T03:08:50.873Z,97039.04
2018-07-19T03:11:18.047Z,97038.72
2018-07-19T03:13:45.131Z,97040.52
2018-07-19T03:16:12.274Z,97035.88
2018-07-19T03:18:39.376Z,97033.61
2018-07-19T03:21:06.533Z,97035.91
2018-07-19T03:23:33.692Z,97038.13
2018-07-19T03:26:00.829Z,97034.17
2018-07-19T03:28:27.960Z,97037.05
2018-07-19T03:30:55.179Z,97033.61
2018-07-19T03:33:22.306Z,97036.05
2018-07-19T03:35:49.583Z,97037.97
2018-07-19T03:38:16.771Z,97042.83
2018-07-19T03:40:43.950Z,97046.18
2018-07-19T03:43:11.148Z,97048.99
2018-07-19T03:48:05.160Z,97049.41
2018-07-19T03:50:32.336Z,97051.96
2018-07-19T03:52:59.420Z,97049.53
2018-07-19T03:55:26.572Z,97052.16
2018-07-19T03:57:53.712Z,97055.95
2018-07-19T04:00:20.859Z,97056.84
2018-07-19T04:02:48.085Z,97057.17
2018-07-19T04:05:15.213Z,97059.78
2018-07-19T04:07:42.439Z,97061.56
2018-07-19T04:10:09.601Z,97055.02
2018-07-19T04:12:36.754Z,97062.21
2018-07-19T04:15:04.042Z,97062.95
2018-07-19T04:17:31.152Z,97073.63
2018-07-19T04:19:58.284Z,97071.19
2018-07-19T04:22:25.408Z,97073.17
2018-07-19T04:24:52.751Z,97076.26
2018-07-19T04:27:19.970Z,97074.89
2018-07-19T04:29:47.215Z,97079.42
2018-07-19T04:32:14.454Z,97068.62
2018-07-19T04:34:41.517Z,97076.88
2018-07-19T04:37:08.720Z,97077.45
2018-07-19T04:39:35.883Z,97086.54
2018-07-19T04:42:03.032Z,97088.13
2018-07-19T04:44:30.180Z,97083.58
2018-07-19T04:46:57.705Z,97087.25
2018-07-19T04:49:25.828Z,97081.69
2018-07-19T04:51:52.992Z,97087.57
2018-07-19T04:54:20.124Z,97091.58
2018-07-19T04:56:47.288Z,97085.36
2018-07-19T04:59:14.388Z,97089.52
2018-07-19T05:01:41.637Z,97083.09
2018-07-19T05:04:08.739Z,97081.91
2018-07-19T05:06:35.903Z,97076.50
2018-07-19T05:09:04.748Z,97080.68
2018-07-19T05:11:31.906Z,97080.02
2018-07-19T05:13:59.096Z,97076.02
2018-07-19T05:16:26.250Z,97078.11
2018-07-19T05:18:53.381Z,97075.44
2018-07-19T05:21:20.559Z,97078.28
2018-07-19T05:23:47.697Z,97075.77
2018-07-19T05:26:14.850Z,97069.22
2018-07-19T05:28:41.998Z,97070.66
2018-07-19T05:31:09.151Z,97072.95
2018-07-19T05:33:36.324Z,97064.38
2018-07-19T05:36:03.505Z,97074.28
2018-07-19T05:38:30.675Z,97070.28
2018-07-19T05:40:57.869Z,97067.89
2018-07-19T05:43:25.068Z,97068.92
2018-07-19T05:45:52.219Z,97064.92
2018-07-19T05:48:19.422Z,97066.80
2018-07-19T05:50:46.627Z,97068.77
2018-07-19T05:53:13.748Z,97065.47
2018-07-19T05:55:40.911Z,97063.14
2018-07-19T05:58:08.115Z,97067.16
2018-07-19T06:00:35.213Z,97072.67
2018-07-19T06:03:02.434Z,97068.52
2018-07-19T06:05:29.724Z,97069.38
2018-07-19T06:07:56.835Z,97078.30
2018-07-19T06:10:23.997Z,97074.71
2018-07-19T06:12:51.131Z,97079.44
2018-07-19T06:15:18.317Z,97077.02
2018-07-19T06:17:45.448Z,97065.91
2018-07-19T06:20:12.664Z,97067.49
2018-07-19T06:22:39.865Z,97068.73
2018-07-19T06:25:07.053Z,97067.92
2018-07-19T06:27:34.234Z,97074.61
2018-07-19T06:30:01.424Z,97066.06
2018-07-19T06:32:28.565Z,97068.16
2018-07-19T06:34:55.745Z,97060.13
2018-07-19T06:37:22.928Z,97065.34
2018-07-19T06:39:50.072Z,97067.06
2018-07-19T06:42:17.254Z,97067.26
2018-07-19T06:44:44.415Z,97070.76
2018-07-19T06:47:12.225Z,97066.02
2018-07-19T06:49:39.422Z,97068.14
2018-07-19T06:52:06.725Z,97071.50
2018-07-19T06:54:33.875Z,97070.97
2018-07-19T06:57:01.020Z,97071.03
2018-07-19T06:59:28.173Z,97058.62
2018-07-19T07:01:55.308Z,97059.86
2018-07-19T07:04:22.428Z,97059.23
2018-07-19T07:06:49.584Z,97060.42
2018-07-19T07:09:16.744Z,97059.27
2018-07-19T07:11:43.888Z,97059.84
2018-07-19T07:14:11.007Z,97060.69
2018-07-19T07:16:38.175Z,97061.87
2018-07-19T07:19:05.308Z,97058.95
2018-07-19T07:21:32.458Z,97063.20
2018-07-19T07:23:59.655Z,97063.11
2018-07-19T07:26:26.803Z,97055.06
2018-07-19T07:28:53.945Z,97058.95
2018-07-19T07:31:21.076Z,97065.31
2018-07-19T07:33:48.216Z,97056.04
2018-07-19T07:36:15.467Z,97058.30
2018-07-19T07:38:42.668Z,97047.56
2018-07-19T07:41:09.893Z,97052.56
2018-07-19T07:43:37.004Z,97049.48
2018-07-19T07:46:04.268Z,97048.16
2018-07-19T07:48:31.416Z,97054.57
2018-07-19T07:50:58.726Z,97051.16
2018-07-19T07:53:25.880Z,97045.25
2018-07-19T07:55:53.037Z,97042.38
2018-07-19T07:58:20.216Z,97042.73
2018-07-19T08:00:47.405Z,97047.96
2018-07-19T08:03:14.553Z,97044.09
2018-07-19T08:05:41.665Z,97047.02
2018-07-19T08:08:08.795Z,97048.75
2018-07-19T08:10:35.955Z,97043.37
2018-07-19T08:13:03.075Z,97042.17
2018-07-19T08:15:30.233Z,97031.61
2018-07-19T08:17:57.376Z,97033.09
2018-07-19T08:20:24.548Z,97036.16
2018-07-19T08:22:51.744Z,97037.02
2018-07-19T08:25:18.912Z,97033.02
2018-07-19T08:27:46.065Z,97035.98
2018-07-19T08:30:13.229Z,97045.53
2018-07-19T08:32:40.389Z,97038.50
2018-07-19T08:35:07.573Z,97038.94
2018-07-19T08:37:34.689Z,97027.20
2018-07-19T08:40:01.897Z,97029.92
2018-07-19T08:42:29.087Z,97038.00
2018-07-19T08:44:56.281Z,97037.34
2018-07-19T08:47:23.428Z,97037.28
2018-07-19T08:49:50.639Z,97031.77
2018-07-19T08:52:18.039Z,97029.92
2018-07-19T08:54:45.251Z,97035.37
2018-07-19T08:57:12.604Z,97035.77
2018-07-19T08:59:39.816Z,97032.35
2018-07-19T09:02:07.265Z,97034.81
2018-07-19T09:04:34.425Z,97032.84
2018-07-19T09:07:01.610Z,97030.59
2018-07-19T09:09:28.735Z,97014.37
2018-07-19T09:11:55.945Z,97030.35
2018-07-19T09:14:23.118Z,97039.52
2018-07-19T09:16:50.259Z,97045.51
2018-07-19T09:19:17.396Z,97041.01
2018-07-19T09:21:44.546Z,97041.94
2018-07-19T09:24:11.711Z,97045.11
2018-07-19T09:26:39.783Z,97046.73
2018-07-19T09:29:06.893Z,97052.34
2018-07-19T09:31:34.113Z,97033.22
2018-07-19T09:34:01.287Z,97037.45
2018-07-19T09:36:28.495Z,97028.02
2018-07-19T09:38:55.672Z,97027.17
2018-07-19T09:41:22.861Z,97029.22
2018-07-19T09:43:50.335Z,97026.35
2018-07-19T09:46:17.680Z,97026.86
2018-07-19T09:48:44.853Z,97026.72
2018-07-19T09:51:12.068Z,97015.60
2018-07-19T09:53:39.276Z,97018.97
2018-07-19T09:56:06.472Z,97018.53
2018-07-19T09:58:33.640Z,97019.55
2018-07-19T10:01:00.837Z,97018.87
2018-07-19T10:03:28.010Z,97003.66
2018-07-19T10:05:55.169Z,97008.05
2018-07-19T10:08:22.313Z,96997.45
2018-07-19T10:10:49.500Z,97002.42
2018-07-19T10:13:16.690Z,97003.80
2018-07-19T10:15:43.852Z,97002.80
2018-07-19T10:18:10.955Z,97005.20
2018-07-19T10:20:38.200Z,97013.18
2018-07-19T10:23:05.341Z,97004.59
2018-07-19T10:25:32.497Z,97012.99
2018-07-19T10:27:59.672Z,97005.23
2018-07-19T10:30:26.816Z,96999.38
2018-07-19T10:32:54.040Z,96999.69
2018-07-19T10:35:21.300Z,97007.99
2018-07-19T10:37:48.537Z,97003.25
2018-07-19T10:40:15.692Z,97002.43
2018-07-19T10:42:42.828Z,97008.81
2018-07-19T10:45:10.068Z,96999.89
2018-07-19T10:47:37.256Z,96994.84
2018-07-19T10:50:04.625Z,96997.09
2018-07-19T10:52:31.764Z,97000.24
2018-07-19T10:54:58.890Z,97002.73
2018-07-19T10:57:26.114Z,97002.38
2018-07-19T10:59:53.257Z,96999.11
2018-07-19T11:02:20.425Z,96995.05
2018-07-19T11:04:47.595Z,96990.60
2018-07-19T11:07:14.766Z,96988.00
2018-07-19T11:09:42.021Z,96990.25
2018-07-19T11:12:09.209Z,96974.86
2018-07-19T11:14:36.366Z,96987.00
2018-07-19T11:17:03.509Z,96989.28
2018-07-19T11:19:30.684Z,96980.75
2018-07-19T11:21:57.812Z,96980.94
2018-07-19T11:24:24.996Z,96984.16
2018-07-19T11:26:52.128Z,96982.77
2018-07-19T11:29:19.371Z,96981.56
2018-07-19T11:31:46.584Z,96977.55
2018-07-19T11:34:13.728Z,96968.77
2018-07-19T11:36:40.861Z,96972.77
2018-07-19T11:39:08.715Z,96965.40
2018-07-19T11:41:36.619Z,96965.91
2018-07-19T11:44:03.829Z,96962.38
2018-07-19T11:46:30.973Z,96960.61
2018-07-19T11:48:58.141Z,96954.66
2018-07-19T11:51:25.281Z,96954.09
2018-07-19T11:53:52.392Z,96960.86
2018-07-19T11:56:19.552Z,96957.83
2018-07-19T11:58:46.712Z,96957.20
2018-07-19T12:01:13.885Z,96956.71
2018-07-19T12:03:41.060Z,96951.97
2018-07-19T12:06:08.220Z,96954.94
2018-07-19T12:08:35.378Z,96957.91
2018-07-19T12:11:02.505Z,96951.73
2018-07-19T12:13:29.653Z,96942.63
2018-07-19T12:15:56.788Z,96939.03
2018-07-19T12:18:23.986Z,96934.63
2018-07-19T12:20:51.152Z,96946.03
2018-07-19T12:23:18.291Z,96937.53
2018-07-19T12:25:45.471Z,96943.72
2018-07-19T12:28:12.617Z,96938.99
2018-07-19T12:30:39.836Z,96936.23
2018-07-19T12:33:07.005Z,96928.45
2018-07-19T12:35:34.100Z,96922.73
2018-07-19T12:38:01.241Z,96927.47
2018-07-19T12:40:28.423Z,96930.27
2018-07-19T12:42:55.580Z,96927.88
2018-07-19T12:45:22.740Z,96924.20
2018-07-19T12:47:50.497Z,96917.43
2018-07-19T12:50:17.607Z,96918.11
2018-07-19T12:52:44.735Z,96924.06
2018-07-19T12:55:11.875Z,96924.63
2018-07-19T12:57:39.076Z,96920.13
2018-07-19T13:00:07.310Z,96918.98
2018-07-19T13:02:34.511Z,96919.67
2018-07-19T13:05:01.752Z,96920.47
2018-07-19T13:07:30.373Z,96921.20
2018-07-19T13:10:02.940Z,96921.98
2018-07-19T13:12:33.190Z,96917.59
2018-07-19T13:15:00.410Z,96913.77
2018-07-19T13:17:27.883Z,96909.31
2018-07-19T13:19:55.151Z,96909.07
2018-07-19T13:22:22.422Z,96902.67
2018-07-19T13:24:49.752Z,96904.16
2018-07-19T13:27:16.924Z,96907.30
2018-07-19T13:29:44.136Z,96908.21
2018-07-19T13:32:11.732Z,96903.69
2018-07-19T13:34:38.970Z,96905.93
2018-07-19T13:37:06.181Z,96898.72
2018-07-19T13:39:33.323Z,96898.12
2018-07-19T13:42:00.418Z,96904.70
2018-07-19T13:44:27.535Z,96899.55
2018-07-19T13:46:54.703Z,96901.91
2018-07-19T13:49:21.844Z,96892.67
2018-07-19T13:51:49.055Z,96898.02
2018-07-19T13:54:27.676Z,96894.20
2018-07-19T13:56:54.826Z,96891.16
2018-07-19T13:59:21.994Z,96885.97
2018-07-19T14:01:49.189Z,96887.84
2018-07-19T14:04:16.309Z,96891.72
2018-07-19T14:06:43.485Z,96890.27
2018-07-19T14:09:13.058Z,96877.77
2018-07-19T14:11:40.355Z,96875.57
2018-07-19T14:14:07.544Z,96874.27
2018-07-19T14:16:34.701Z,96878.13
2018-07-19T14:19:01.872Z,96869.63
2018-07-19T14:21:29.084Z,96861.39
2018-07-19T14:23:56.242Z,96867.51
2018-07-19T14:26:23.388Z,96864.73
2018-07-19T14:28:50.522Z,96865.87
2018-07-19T14:31:17.668Z,96860.11
2018-07-19T14:33:44.875Z,96857.64
2018-07-19T14:36:12.266Z,96856.05
2018-07-19T14:38:39.441Z,96859.17
2018-07-19T14:41:06.683Z,96858.71
2018-07-19T14:43:33.880Z,96854.77
2018-07-19T14:46:01.100Z,96852.51
2018-07-19T14:48:28.291Z,96845.66
2018-07-19T14:50:55.521Z,96848.07
2018-07-19T14:53:22.704Z,96851.41
2018-07-19T14:55:49.880Z,96847.59
2018-07-19T14:58:17.045Z,96848.41
2018-07-19T15:00:44.226Z,96851.33
2018-07-19T15:03:11.418Z,96833.50
2018-07-19T15:05:38.628Z,96840.33
2018-07-19T15:08:05.845Z,96837.69
2018-07-19T15:10:33.047Z,96833.04
2018-07-19T15:13:00.317Z,96825.42
2018-07-19T15:15:27.560Z,96828.77
2018-07-19T15:17:54.740Z,96826.30
2018-07-19T15:20:21.890Z,96828.33
2018-07-19T15:22:49.074Z,96823.83
2018-07-19T15:25:16.296Z,96816.98
2018-07-19T15:27:43.545Z,96818.09
2018-07-19T15:30:10.832Z,96820.81
2018-07-19T15:32:38.122Z,96817.50
2018-07-19T15:35:05.326Z,96815.30
2018-07-19T15:37:32.606Z,96813.16
2018-07-19T15:39:59.780Z,96813.67
2018-07-19T15:42:26.981Z,96806.04
2018-07-19T15:44:54.179Z,96809.12
2018-07-19T15:47:21.388Z,96803.19
2018-07-19T15:49:48.561Z,96805.88
2018-07-19T15:52:15.721Z,96808.50
2018-07-19T15:54:42.889Z,96804.00
2018-07-19T15:57:10.086Z,96804.59
2018-07-19T15:59:37.468Z,96802.34
2018-07-19T16:02:04.669Z,96796.80
2018-07-19T16:04:31.890Z,96799.51
2018-07-19T16:06:59.164Z,96795.58
2018-07-19T16:09:26.393Z,96798.39
2018-07-19T16:11:53.578Z,96799.50
2018-07-19T16:14:20.739Z,96787.45
2018-07-19T16:16:47.932Z,96783.52
2018-07-19T16:19:15.080Z,96783.50
2018-07-19T16:21:42.238Z,96791.15
2018-07-19T16:24:09.390Z,96780.98
2018-07-19T16:26:36.579Z,96781.22
2018-07-19T16:29:03.800Z,96783.64
2018-07-19T16:31:31.091Z,96787.66
2018-07-19T16:33:58.345Z,96781.33
2018-07-19T16:36:25.538Z,96784.98
2018-07-19T16:38:52.698Z,96778.61
2018-07-19T16:41:19.901Z,96783.94
2018-07-19T16:43:47.091Z,96785.05
2018-07-19T16:46:14.363Z,96782.02
2018-07-19T16:48:41.526Z,96780.94
2018-07-19T16:51:08.676Z,96774.41
2018-07-19T16:53:35.942Z,96776.55
2018-07-19T16:56:03.092Z,96775.09
2018-07-19T16:58:30.405Z,96774.48
2018-07-19T17:00:57.614Z,96776.37
2018-07-19T17:03:24.817Z,96775.95
2018-07-19T17:05:52.104Z,96772.04
2018-07-19T17:08:19.284Z,96772.73
2018-07-19T17:10:46.504Z,96783.61
2018-07-19T17:13:13.765Z,96779.86
2018-07-19T17:15:40.995Z,96774.70
2018-07-19T17:18:08.295Z,96774.72
2018-07-19T17:20:35.559Z,96777.00
2018-07-19T17:23:02.729Z,96774.45
2018-07-19T17:25:29.892Z,96778.63
2018-07-19T17:27:57.069Z,96783.83
2018-07-19T17:30:24.275Z,96783.83
2018-07-19T17:32:51.473Z,96781.23
2018-07-19T17:35:18.674Z,96780.53
2018-07-19T17:37:45.920Z,96781.38
2018-07-19T17:40:13.114Z,96782.51
2018-07-19T17:42:40.272Z,96778.20
2018-07-19T17:45:07.560Z,96784.64
2018-07-19T17:47:34.723Z,96780.52
2018-07-19T17:50:01.891Z,96789.18
2018-07-19T17:52:29.067Z,96778.94
2018-07-19T17:54:56.240Z,96782.55
2018-07-19T17:57:23.481Z,96779.42
2018-07-19T17:59:50.590Z,96772.94
2018-07-19T18:02:17.775Z,96781.80
2018-07-19T18:04:44.916Z,96776.33
2018-07-19T18:07:12.168Z,96776.52
2018-07-19T18:09:39.342Z,96783.51
2018-07-19T18:12:06.695Z,96782.53
2018-07-19T18:14:33.808Z,96783.30
2018-07-19T18:17:00.944Z,96786.20
2018-07-19T18:19:28.105Z,96779.26
2018-07-19T18:21:55.276Z,96786.58
2018-07-19T18:24:22.467Z,96788.55
2018-07-19T18:26:49.668Z,96786.08
2018-07-19T18:29:16.868Z,96782.38
2018-07-19T18:31:44.030Z,96786.09
2018-07-19T18:34:11.170Z,96789.97
2018-07-19T18:36:38.395Z,96789.69
2018-07-19T18:39:08.128Z,96793.51
2018-07-19T18:41:35.303Z,96785.97
2018-07-19T18:44:02.470Z,96785.55
2018-07-19T18:46:29.585Z,96784.55
2018-07-19T18:48:56.757Z,96780.09
2018-07-19T18:51:23.948Z,96792.33
2018-07-19T18:53:51.163Z,96790.33
2018-07-19T18:56:18.320Z,96793.55
2018-07-19T18:58:45.440Z,96791.56
2018-07-19T19:01:12.784Z,96792.81
2018-07-19T19:03:39.977Z,96796.69
2018-07-19T19:06:07.351Z,96799.97
2018-07-19T19:08:34.508Z,96797.91
2018-07-19T19:11:01.854Z,96803.78
2018-07-19T19:13:29.064Z,96803.34
2018-07-19T19:15:56.229Z,96809.14
2018-07-19T19:18:23.454Z,96812.28
2018-07-19T19:20:50.709Z,96819.09
2018-07-19T19:23:17.971Z,96818.84
2018-07-19T19:25:45.168Z,96819.09
2018-07-19T19:28:12.605Z,96815.99
2018-07-19T19:30:39.872Z,96815.14
2018-07-19T19:33:07.093Z,96824.27
2018-07-19T19:35:34.381Z,96827.26
2018-07-19T19:38:01.732Z,96823.45
2018-07-19T19:40:28.934Z,96828.59
2018-07-19T19:42:56.096Z,96831.81
2018-07-19T19:45:23.304Z,96823.55
2018-07-19T19:47:50.488Z,96827.01
2018-07-19T19:50:17.679Z,96832.07
2018-07-19T19:52:44.818Z,96819.87
2018-07-19T19:55:11.992Z,96827.56
2018-07-19T19:57:39.183Z,96826.56
2018-07-19T20:00:06.436Z,96825.83
2018-07-19T20:02:33.631Z,96830.98
2018-07-19T20:05:00.824Z,96835.94
2018-07-19T20:07:28.004Z,96837.30
2018-07-19T20:09:55.433Z,96842.33
2018-07-19T20:12:22.852Z,96841.54
2018-07-19T20:14:50.283Z,96838.47
2018-07-19T20:17:17.679Z,96839.23
2018-07-19T20:19:45.072Z,96838.81
2018-07-19T20:22:12.572Z,96840.77
2018-07-19T20:24:40.519Z,96847.48
2018-07-19T20:27:14.776Z,96846.72
2018-07-19T20:29:42.063Z,96845.98
2018-07-19T20:32:09.311Z,96850.22
2018-07-19T20:34:36.612Z,96850.23
2018-07-19T20:37:03.752Z,96850.78
2018-07-19T20:39:30.987Z,96857.12
2018-07-19T20:41:58.196Z,96854.81
2018-07-19T20:44:25.421Z,96855.20
2018-07-19T20:46:52.572Z,96851.56
2018-07-19T20:49:19.721Z,96850.56
2018-07-19T20:51:46.846Z,96845.34
2018-07-19T20:54:14.080Z,96853.99
2018-07-19T20:56:41.253Z,96857.86
2018-07-19T20:59:08.436Z,96860.78
2018-07-19T21:01:35.599Z,96860.98
2018-07-19T21:04:02.761Z,96864.60
2018-07-19T21:06:29.940Z,96863.05
2018-07-19T21:08:57.127Z,96864.94
2018-07-19T21:11:24.307Z,96865.83
2018-07-19T21:13:51.516Z,96864.62
2018-07-19T21:16:18.636Z,96868.22
2018-07-19T21:18:45.796Z,96868.50
2018-07-19T21:21:12.923Z,96873.46
2018-07-19T21:23:40.092Z,96871.55
2018-07-19T21:26:07.278Z,96871.08
2018-07-19T21:28:34.437Z,96877.34
2018-07-19T21:31:01.566Z,96877.95
2018-07-19T21:33:28.694Z,96879.91
2018-07-19T21:35:55.864Z,96878.63
2018-07-19T21:38:22.975Z,96883.41
2018-07-19T21:40:50.107Z,96889.31
2018-07-19T21:43:17.973Z,96888.40
2018-07-19T21:45:51.782Z,96884.70
2018-07-19T21:48:18.912Z,96896.66
2018-07-19T21:50:46.064Z,96894.86
2018-07-19T21:53:13.628Z,96893.98
2018-07-19T21:55:40.789Z,96894.86
2018-07-19T21:58:07.933Z,96898.74
2018-07-19T22:00:39.643Z,96898.04
2018-07-19T22:03:06.839Z,96893.95
2018-07-19T22:05:33.936Z,96894.02
2018-07-19T22:08:01.158Z,96897.77
2018-07-19T22:10:28.309Z,96900.69
2018-07-19T22:12:55.422Z,96896.29
2018-07-19T22:15:22.663Z,96900.35
2018-07-19T22:17:49.864Z,96901.09
2018-07-19T22:20:17.020Z,96907.95
2018-07-19T22:22:44.225Z,96905.11
2018-07-19T22:25:11.333Z,96902.92
2018-07-19T22:27:38.436Z,96904.77
2018-07-19T22:30:05.713Z,96903.06
2018-07-19T22:32:39.686Z,96898.56
2018-07-19T22:35:06.796Z,96895.86
2018-07-19T22:37:33.935Z,96899.41
2018-07-19T22:40:01.116Z,96896.41
2018-07-19T22:42:28.179Z,96897.39
2018-07-19T22:44:55.291Z,96893.69
2018-07-19T22:47:22.548Z,96893.12
2018-07-19T22:49:49.652Z,96903.99
2018-07-19T22:52:16.776Z,96896.21
2018-07-19T22:54:43.932Z,96897.43
2018-07-19T22:57:11.160Z,96899.30
2018-07-19T22:59:38.338Z,96896.64
2018-07-19T23:02:05.467Z,96901.93
2018-07-19T23:04:32.607Z,96901.41
2018-07-19T23:06:59.742Z,96904.53
2018-07-19T23:09:26.847Z,96907.81
2018-07-19T23:11:54.099Z,96905.61
2018-07-19T23:14:21.216Z,96901.80
2018-07-19T23:16:48.320Z,96906.20
2018-07-19T23:19:15.482Z,96905.84
2018-07-19T23:21:42.614Z,96909.88
2018-07-19T23:24:09.764Z,96911.64
2018-07-19T23:26:36.959Z,96904.69
2018-07-19T23:29:04.357Z,96907.13
2018-07-19T23:31:31.501Z,96904.69
2018-07-19T23:33:58.762Z,96917.05
2018-07-19T23:36:31.852Z,96914.52
2018-07-19T23:39:04.508Z,96917.55
2018-07-19T23:41:39.784Z,96917.02
2018-07-19T23:44:12.631Z,96916.64
2018-07-19T23:46:45.575Z,96910.69
2018-07-19T23:49:12.751Z,96915.84
2018-07-19T23:51:39.999Z,96915.98
2018-07-19T23:54:07.183Z,96914.44
2018-07-19T23:56:34.855Z,96911.84
2018-07-19T23:59:02.041Z,96921.69
